sensor_id;sensor_type;location;lat;lon;timestamp;P1;durP1;ratioP1;P2;durP2;ratioP2
26806;SDS011;14380;49.910;6.792;2023-04-29T00:01:33;2.88;;;1.33;;
26806;SDS011;14380;49.910;6.792;2023-04-29T00:04:01;1.55;;;0.70;;
26806;SDS011;14380;49.910;6.792;2023-04-29T00:06:28;1.00;;;0.70;;
26806;SDS011;14380;49.910;6.792;2023-04-29T00:08:54;1.55;;;0.88;;
26806;SDS011;14380;49.910;6.792;2023-04-29T00:11:21;1.30;;;1.00;;
26806;SDS011;14380;49.910;6.792;2023-04-29T00:13:47;2.67;;;1.17;;
26806;SDS011;14380;49.910;6.792;2023-04-29T00:16:14;1.00;;;0.70;;
26806;SDS011;14380;49.910;6.792;2023-04-29T00:18:40;2.70;;;1.00;;
26806;SDS011;14380;49.910;6.792;2023-04-29T00:21:08;1.38;;;1.10;;
26806;SDS011;14380;49.910;6.792;2023-04-29T00:23:35;3.72;;;1.48;;
26806;SDS011;14380;49.910;6.792;2023-04-29T00:26:02;1.00;;;0.90;;
26806;SDS011;14380;49.910;6.792;2023-04-29T00:28:28;2.50;;;1.00;;
26806;SDS011;14380;49.910;6.792;2023-04-29T00:30:55;1.27;;;0.90;;
26806;SDS011;14380;49.910;6.792;2023-04-29T00:33:21;1.67;;;0.98;;
26806;SDS011;14380;49.910;6.792;2023-04-29T00:35:48;3.20;;;0.98;;
26806;SDS011;14380;49.910;6.792;2023-04-29T00:38:16;1.58;;;1.00;;
26806;SDS011;14380;49.910;6.792;2023-04-29T00:40:43;2.50;;;1.10;;
26806;SDS011;14380;49.910;6.792;2023-04-29T00:43:09;1.67;;;0.95;;
26806;SDS011;14380;49.910;6.792;2023-04-29T00:45:36;1.30;;;1.02;;
26806;SDS011;14380;49.910;6.792;2023-04-29T00:48:03;2.20;;;2.00;;
26806;SDS011;14380;49.910;6.792;2023-04-29T00:50:30;4.95;;;1.88;;
26806;SDS011;14380;49.910;6.792;2023-04-29T00:52:56;3.10;;;2.50;;
26806;SDS011;14380;49.910;6.792;2023-04-29T00:55:24;7.18;;;3.15;;
26806;SDS011;14380;49.910;6.792;2023-04-29T00:57:52;6.03;;;3.20;;
26806;SDS011;14380;49.910;6.792;2023-04-29T01:00:19;4.82;;;2.80;;
26806;SDS011;14380;49.910;6.792;2023-04-29T01:02:45;3.15;;;2.85;;
26806;SDS011;14380;49.910;6.792;2023-04-29T01:05:13;6.10;;;3.22;;
26806;SDS011;14380;49.910;6.792;2023-04-29T01:07:41;4.32;;;3.30;;
26806;SDS011;14380;49.910;6.792;2023-04-29T01:10:14;3.78;;;3.17;;
26806;SDS011;14380;49.910;6.792;2023-04-29T01:12:49;5.03;;;3.40;;
26806;SDS011;14380;49.910;6.792;2023-04-29T01:15:25;4.22;;;3.10;;
26806;SDS011;14380;49.910;6.792;2023-04-29T01:17:58;5.47;;;3.45;;
26806;SDS011;14380;49.910;6.792;2023-04-29T01:20:25;9.18;;;4.00;;
26806;SDS011;14380;49.910;6.792;2023-04-29T01:22:53;4.05;;;3.65;;
26806;SDS011;14380;49.910;6.792;2023-04-29T01:25:21;7.00;;;4.63;;
26806;SDS011;14380;49.910;6.792;2023-04-29T01:27:49;7.60;;;4.43;;
26806;SDS011;14380;49.910;6.792;2023-04-29T01:30:25;8.20;;;5.60;;
26806;SDS011;14380;49.910;6.792;2023-04-29T01:32:59;7.82;;;4.60;;
26806;SDS011;14380;49.910;6.792;2023-04-29T01:35:35;7.80;;;5.05;;
26806;SDS011;14380;49.910;6.792;2023-04-29T01:38:13;8.43;;;5.57;;
26806;SDS011;14380;49.910;6.792;2023-04-29T01:40:52;8.98;;;6.35;;
26806;SDS011;14380;49.910;6.792;2023-04-29T01:43:26;7.20;;;5.45;;
26806;SDS011;14380;49.910;6.792;2023-04-29T01:45:55;7.35;;;6.32;;
26806;SDS011;14380;49.910;6.792;2023-04-29T01:48:21;6.93;;;5.80;;
26806;SDS011;14380;49.910;6.792;2023-04-29T01:50:49;8.65;;;7.10;;
26806;SDS011;14380;49.910;6.792;2023-04-29T01:53:16;8.63;;;7.38;;
26806;SDS011;14380;49.910;6.792;2023-04-29T01:55:42;7.65;;;6.75;;
26806;SDS011;14380;49.910;6.792;2023-04-29T01:58:10;10.57;;;7.63;;
26806;SDS011;14380;49.910;6.792;2023-04-29T02:00:37;9.63;;;7.35;;
26806;SDS011;14380;49.910;6.792;2023-04-29T02:03:03;9.73;;;7.07;;
26806;SDS011;14380;49.910;6.792;2023-04-29T02:05:30;10.30;;;7.78;;
26806;SDS011;14380;49.910;6.792;2023-04-29T02:07:58;11.38;;;8.50;;
26806;SDS011;14380;49.910;6.792;2023-04-29T02:10:24;9.77;;;7.95;;
26806;SDS011;14380;49.910;6.792;2023-04-29T02:12:51;10.07;;;8.00;;
26806;SDS011;14380;49.910;6.792;2023-04-29T02:15:19;11.95;;;7.85;;
26806;SDS011;14380;49.910;6.792;2023-04-29T02:17:46;12.68;;;8.63;;
26806;SDS011;14380;49.910;6.792;2023-04-29T02:20:13;11.70;;;9.00;;
26806;SDS011;14380;49.910;6.792;2023-04-29T02:22:40;12.20;;;9.40;;
26806;SDS011;14380;49.910;6.792;2023-04-29T02:25:06;13.02;;;8.88;;
26806;SDS011;14380;49.910;6.792;2023-04-29T02:27:33;13.45;;;9.73;;
26806;SDS011;14380;49.910;6.792;2023-04-29T02:30:00;12.00;;;9.48;;
26806;SDS011;14380;49.910;6.792;2023-04-29T02:32:28;15.20;;;9.75;;
26806;SDS011;14380;49.910;6.792;2023-04-29T02:34:55;13.70;;;9.45;;
26806;SDS011;14380;49.910;6.792;2023-04-29T02:37:22;18.85;;;10.50;;
26806;SDS011;14380;49.910;6.792;2023-04-29T02:39:48;11.82;;;9.27;;
26806;SDS011;14380;49.910;6.792;2023-04-29T02:42:15;13.43;;;10.13;;
26806;SDS011;14380;49.910;6.792;2023-04-29T02:44:41;14.75;;;9.63;;
26806;SDS011;14380;49.910;6.792;2023-04-29T02:47:08;15.43;;;10.38;;
26806;SDS011;14380;49.910;6.792;2023-04-29T02:49:36;13.50;;;9.95;;
26806;SDS011;14380;49.910;6.792;2023-04-29T02:52:02;13.85;;;10.38;;
26806;SDS011;14380;49.910;6.792;2023-04-29T02:54:29;15.48;;;10.13;;
26806;SDS011;14380;49.910;6.792;2023-04-29T02:56:56;15.27;;;10.63;;
26806;SDS011;14380;49.910;6.792;2023-04-29T02:59:23;13.45;;;9.98;;
26806;SDS011;14380;49.910;6.792;2023-04-29T03:01:50;15.05;;;9.85;;
26806;SDS011;14380;49.910;6.792;2023-04-29T03:04:18;20.80;;;9.95;;
26806;SDS011;14380;49.910;6.792;2023-04-29T03:06:46;14.45;;;10.70;;
26806;SDS011;14380;49.910;6.792;2023-04-29T03:09:12;12.73;;;9.85;;
26806;SDS011;14380;49.910;6.792;2023-04-29T03:11:39;12.82;;;10.23;;
26806;SDS011;14380;49.910;6.792;2023-04-29T03:14:06;15.80;;;11.25;;
26806;SDS011;14380;49.910;6.792;2023-04-29T03:16:32;13.98;;;10.35;;
26806;SDS011;14380;49.910;6.792;2023-04-29T03:18:59;15.30;;;10.88;;
26806;SDS011;14380;49.910;6.792;2023-04-29T03:21:25;13.55;;;9.75;;
26806;SDS011;14380;49.910;6.792;2023-04-29T03:23:55;13.27;;;9.43;;
26806;SDS011;14380;49.910;6.792;2023-04-29T03:26:21;12.38;;;10.30;;
26806;SDS011;14380;49.910;6.792;2023-04-29T03:28:48;14.55;;;10.75;;
26806;SDS011;14380;49.910;6.792;2023-04-29T03:31:15;14.43;;;10.25;;
26806;SDS011;14380;49.910;6.792;2023-04-29T03:33:42;13.40;;;10.57;;
26806;SDS011;14380;49.910;6.792;2023-04-29T03:36:09;14.43;;;11.00;;
26806;SDS011;14380;49.910;6.792;2023-04-29T03:38:35;14.23;;;10.57;;
26806;SDS011;14380;49.910;6.792;2023-04-29T03:41:03;13.43;;;9.73;;
26806;SDS011;14380;49.910;6.792;2023-04-29T03:43:30;16.70;;;10.65;;
26806;SDS011;14380;49.910;6.792;2023-04-29T03:45:57;15.95;;;11.40;;
26806;SDS011;14380;49.910;6.792;2023-04-29T03:48:23;16.92;;;11.70;;
26806;SDS011;14380;49.910;6.792;2023-04-29T03:50:50;14.77;;;11.40;;
26806;SDS011;14380;49.910;6.792;2023-04-29T03:53:17;17.73;;;11.45;;
26806;SDS011;14380;49.910;6.792;2023-04-29T03:55:44;15.88;;;10.93;;
26806;SDS011;14380;49.910;6.792;2023-04-29T03:58:13;14.25;;;10.98;;
26806;SDS011;14380;49.910;6.792;2023-04-29T04:00:40;15.40;;;10.65;;
26806;SDS011;14380;49.910;6.792;2023-04-29T04:03:07;13.70;;;10.63;;
26806;SDS011;14380;49.910;6.792;2023-04-29T04:05:33;16.83;;;11.57;;
26806;SDS011;14380;49.910;6.792;2023-04-29T04:08:00;17.77;;;10.73;;
26806;SDS011;14380;49.910;6.792;2023-04-29T04:10:27;14.13;;;11.27;;
26806;SDS011;14380;49.910;6.792;2023-04-29T04:12:54;18.45;;;10.88;;
26806;SDS011;14380;49.910;6.792;2023-04-29T04:15:21;17.52;;;12.02;;
26806;SDS011;14380;49.910;6.792;2023-04-29T04:17:48;10.95;;;7.47;;
26806;SDS011;14380;49.910;6.792;2023-04-29T04:20:15;10.32;;;6.80;;
26806;SDS011;14380;49.910;6.792;2023-04-29T04:22:41;15.20;;;11.88;;
26806;SDS011;14380;49.910;6.792;2023-04-29T04:25:08;16.83;;;11.68;;
26806;SDS011;14380;49.910;6.792;2023-04-29T04:27:35;18.13;;;12.02;;
26806;SDS011;14380;49.910;6.792;2023-04-29T04:30:02;18.10;;;11.60;;
26806;SDS011;14380;49.910;6.792;2023-04-29T04:32:30;18.45;;;13.60;;
26806;SDS011;14380;49.910;6.792;2023-04-29T04:34:57;18.48;;;13.65;;
26806;SDS011;14380;49.910;6.792;2023-04-29T04:37:24;19.58;;;14.23;;
26806;SDS011;14380;49.910;6.792;2023-04-29T04:39:50;19.02;;;14.35;;
26806;SDS011;14380;49.910;6.792;2023-04-29T04:42:17;22.63;;;16.13;;
26806;SDS011;14380;49.910;6.792;2023-04-29T04:44:43;22.45;;;15.52;;
26806;SDS011;14380;49.910;6.792;2023-04-29T04:47:10;21.67;;;15.68;;
26806;SDS011;14380;49.910;6.792;2023-04-29T04:49:38;22.67;;;15.38;;
26806;SDS011;14380;49.910;6.792;2023-04-29T04:52:04;21.08;;;14.48;;
26806;SDS011;14380;49.910;6.792;2023-04-29T04:54:31;21.45;;;14.98;;
26806;SDS011;14380;49.910;6.792;2023-04-29T04:56:58;21.50;;;15.63;;
26806;SDS011;14380;49.910;6.792;2023-04-29T04:59:24;22.58;;;15.15;;
26806;SDS011;14380;49.910;6.792;2023-04-29T05:01:51;20.27;;;15.15;;
26806;SDS011;14380;49.910;6.792;2023-04-29T05:04:17;22.63;;;16.17;;
26806;SDS011;14380;49.910;6.792;2023-04-29T05:06:45;25.27;;;15.88;;
26806;SDS011;14380;49.910;6.792;2023-04-29T05:09:12;21.80;;;14.98;;
26806;SDS011;14380;49.910;6.792;2023-04-29T05:11:38;22.85;;;14.48;;
26806;SDS011;14380;49.910;6.792;2023-04-29T05:14:05;21.92;;;14.25;;
26806;SDS011;14380;49.910;6.792;2023-04-29T05:16:32;20.58;;;14.45;;
26806;SDS011;14380;49.910;6.792;2023-04-29T05:18:59;21.98;;;14.63;;
26806;SDS011;14380;49.910;6.792;2023-04-29T05:21:25;21.80;;;14.75;;
26806;SDS011;14380;49.910;6.792;2023-04-29T05:23:53;20.10;;;14.77;;
26806;SDS011;14380;49.910;6.792;2023-04-29T05:26:19;24.17;;;14.88;;
26806;SDS011;14380;49.910;6.792;2023-04-29T05:28:46;22.83;;;15.95;;
26806;SDS011;14380;49.910;6.792;2023-04-29T05:31:13;21.73;;;15.27;;
26806;SDS011;14380;49.910;6.792;2023-04-29T05:33:39;20.30;;;13.77;;
26806;SDS011;14380;49.910;6.792;2023-04-29T05:36:06;19.88;;;13.48;;
26806;SDS011;14380;49.910;6.792;2023-04-29T05:38:33;18.83;;;13.02;;
26806;SDS011;14380;49.910;6.792;2023-04-29T05:41:01;21.25;;;13.77;;
26806;SDS011;14380;49.910;6.792;2023-04-29T05:43:27;19.48;;;13.43;;
26806;SDS011;14380;49.910;6.792;2023-04-29T05:45:54;21.83;;;14.15;;
26806;SDS011;14380;49.910;6.792;2023-04-29T05:48:21;18.15;;;12.45;;
26806;SDS011;14380;49.910;6.792;2023-04-29T05:50:48;24.08;;;14.50;;
26806;SDS011;14380;49.910;6.792;2023-04-29T05:53:15;20.90;;;13.65;;
26806;SDS011;14380;49.910;6.792;2023-04-29T05:55:41;19.48;;;13.75;;
26806;SDS011;14380;49.910;6.792;2023-04-29T05:58:10;20.25;;;13.90;;
26806;SDS011;14380;49.910;6.792;2023-04-29T06:00:37;19.50;;;13.57;;
26806;SDS011;14380;49.910;6.792;2023-04-29T06:03:04;21.85;;;13.85;;
26806;SDS011;14380;49.910;6.792;2023-04-29T06:05:31;22.13;;;12.93;;
26806;SDS011;14380;49.910;6.792;2023-04-29T06:07:58;20.52;;;12.48;;
26806;SDS011;14380;49.910;6.792;2023-04-29T06:10:24;19.58;;;13.13;;
26806;SDS011;14380;49.910;6.792;2023-04-29T06:12:51;17.58;;;12.10;;
26806;SDS011;14380;49.910;6.792;2023-04-29T06:15:19;18.63;;;11.60;;
26806;SDS011;14380;49.910;6.792;2023-04-29T06:17:45;18.63;;;11.65;;
26806;SDS011;14380;49.910;6.792;2023-04-29T06:20:12;18.42;;;10.85;;
26806;SDS011;14380;49.910;6.792;2023-04-29T06:22:39;22.23;;;11.52;;
26806;SDS011;14380;49.910;6.792;2023-04-29T06:25:06;17.52;;;11.52;;
26806;SDS011;14380;49.910;6.792;2023-04-29T06:27:34;16.58;;;11.27;;
26806;SDS011;14380;49.910;6.792;2023-04-29T06:30:16;19.35;;;11.43;;
26806;SDS011;14380;49.910;6.792;2023-04-29T06:32:48;16.73;;;11.63;;
26806;SDS011;14380;49.910;6.792;2023-04-29T06:35:14;20.70;;;12.65;;
26806;SDS011;14380;49.910;6.792;2023-04-29T06:37:41;14.98;;;10.65;;
26806;SDS011;14380;49.910;6.792;2023-04-29T06:40:08;16.48;;;11.57;;
26806;SDS011;14380;49.910;6.792;2023-04-29T06:42:35;17.98;;;11.68;;
26806;SDS011;14380;49.910;6.792;2023-04-29T06:45:01;19.52;;;12.18;;
26806;SDS011;14380;49.910;6.792;2023-04-29T06:47:28;17.63;;;11.88;;
26806;SDS011;14380;49.910;6.792;2023-04-29T06:49:56;15.35;;;11.63;;
26806;SDS011;14380;49.910;6.792;2023-04-29T06:52:23;16.75;;;11.48;;
26806;SDS011;14380;49.910;6.792;2023-04-29T06:54:49;15.75;;;10.18;;
26806;SDS011;14380;49.910;6.792;2023-04-29T06:57:16;16.10;;;10.65;;
26806;SDS011;14380;49.910;6.792;2023-04-29T06:59:42;17.20;;;10.00;;
26806;SDS011;14380;49.910;6.792;2023-04-29T07:02:09;18.50;;;11.15;;
26806;SDS011;14380;49.910;6.792;2023-04-29T07:04:35;17.45;;;11.07;;
26806;SDS011;14380;49.910;6.792;2023-04-29T07:07:03;16.20;;;10.35;;
26806;SDS011;14380;49.910;6.792;2023-04-29T07:09:30;16.10;;;9.57;;
26806;SDS011;14380;49.910;6.792;2023-04-29T07:11:57;14.00;;;9.45;;
26806;SDS011;14380;49.910;6.792;2023-04-29T07:14:23;14.88;;;8.85;;
26806;SDS011;14380;49.910;6.792;2023-04-29T07:16:53;14.55;;;9.30;;
26806;SDS011;14380;49.910;6.792;2023-04-29T07:19:20;12.95;;;8.00;;
26806;SDS011;14380;49.910;6.792;2023-04-29T07:21:46;11.65;;;7.93;;
26806;SDS011;14380;49.910;6.792;2023-04-29T07:24:14;11.90;;;7.88;;
26806;SDS011;14380;49.910;6.792;2023-04-29T07:26:41;11.43;;;7.82;;
26806;SDS011;14380;49.910;6.792;2023-04-29T07:29:08;11.13;;;7.38;;
26806;SDS011;14380;49.910;6.792;2023-04-29T07:31:35;11.10;;;7.45;;
26806;SDS011;14380;49.910;6.792;2023-04-29T07:34:01;9.63;;;7.38;;
26806;SDS011;14380;49.910;6.792;2023-04-29T07:36:28;11.68;;;7.88;;
26806;SDS011;14380;49.910;6.792;2023-04-29T07:38:55;11.32;;;7.90;;
26806;SDS011;14380;49.910;6.792;2023-04-29T07:41:24;11.00;;;7.50;;
26806;SDS011;14380;49.910;6.792;2023-04-29T07:43:50;12.32;;;7.40;;
26806;SDS011;14380;49.910;6.792;2023-04-29T07:46:17;11.00;;;7.15;;
26806;SDS011;14380;49.910;6.792;2023-04-29T07:48:43;9.48;;;6.63;;
26806;SDS011;14380;49.910;6.792;2023-04-29T07:51:11;9.43;;;7.22;;
26806;SDS011;14380;49.910;6.792;2023-04-29T07:53:39;9.77;;;6.90;;
26806;SDS011;14380;49.910;6.792;2023-04-29T07:56:06;11.05;;;7.65;;
26806;SDS011;14380;49.910;6.792;2023-04-29T07:58:34;10.65;;;7.50;;
26806;SDS011;14380;49.910;6.792;2023-04-29T08:01:04;9.32;;;6.95;;
26806;SDS011;14380;49.910;6.792;2023-04-29T08:03:31;10.27;;;7.00;;
26806;SDS011;14380;49.910;6.792;2023-04-29T08:05:59;10.40;;;7.03;;
26806;SDS011;14380;49.910;6.792;2023-04-29T08:08:27;10.65;;;7.30;;
26806;SDS011;14380;49.910;6.792;2023-04-29T08:10:54;9.73;;;7.07;;
26806;SDS011;14380;49.910;6.792;2023-04-29T08:13:20;9.30;;;7.03;;
26806;SDS011;14380;49.910;6.792;2023-04-29T08:15:48;8.82;;;6.95;;
26806;SDS011;14380;49.910;6.792;2023-04-29T08:18:15;10.25;;;6.95;;
26806;SDS011;14380;49.910;6.792;2023-04-29T08:20:42;10.40;;;6.50;;
26806;SDS011;14380;49.910;6.792;2023-04-29T08:23:08;10.10;;;6.20;;
26806;SDS011;14380;49.910;6.792;2023-04-29T08:25:35;12.57;;;6.32;;
26806;SDS011;14380;49.910;6.792;2023-04-29T08:28:02;9.52;;;6.15;;
26806;SDS011;14380;49.910;6.792;2023-04-29T08:30:28;9.35;;;6.35;;
26806;SDS011;14380;49.910;6.792;2023-04-29T08:32:56;10.93;;;6.75;;
26806;SDS011;14380;49.910;6.792;2023-04-29T08:35:22;11.57;;;7.82;;
26806;SDS011;14380;49.910;6.792;2023-04-29T08:37:49;10.02;;;7.15;;
26806;SDS011;14380;49.910;6.792;2023-04-29T08:40:18;9.73;;;7.00;;
26806;SDS011;14380;49.910;6.792;2023-04-29T08:42:45;10.13;;;6.97;;
26806;SDS011;14380;49.910;6.792;2023-04-29T08:45:13;10.43;;;6.90;;
26806;SDS011;14380;49.910;6.792;2023-04-29T08:47:41;12.20;;;6.97;;
26806;SDS011;14380;49.910;6.792;2023-04-29T08:50:10;9.30;;;7.00;;
26806;SDS011;14380;49.910;6.792;2023-04-29T08:52:37;9.55;;;6.53;;
26806;SDS011;14380;49.910;6.792;2023-04-29T08:55:04;10.40;;;7.28;;
26806;SDS011;14380;49.910;6.792;2023-04-29T08:57:32;10.85;;;7.55;;
26806;SDS011;14380;49.910;6.792;2023-04-29T09:00:03;14.07;;;7.55;;
26806;SDS011;14380;49.910;6.792;2023-04-29T09:02:32;11.35;;;7.43;;
26806;SDS011;14380;49.910;6.792;2023-04-29T09:05:07;11.50;;;7.38;;
26806;SDS011;14380;49.910;6.792;2023-04-29T09:07:36;12.15;;;7.55;;
26806;SDS011;14380;49.910;6.792;2023-04-29T09:10:03;10.30;;;6.93;;
26806;SDS011;14380;49.910;6.792;2023-04-29T09:12:31;13.77;;;6.82;;
26806;SDS011;14380;49.910;6.792;2023-04-29T09:14:57;9.85;;;7.10;;
26806;SDS011;14380;49.910;6.792;2023-04-29T09:17:37;10.88;;;6.63;;
26806;SDS011;14380;49.910;6.792;2023-04-29T09:20:15;11.05;;;6.47;;
26806;SDS011;14380;49.910;6.792;2023-04-29T09:25:19;12.38;;;6.68;;
26806;SDS011;14380;49.910;6.792;2023-04-29T09:27:46;21.75;;;7.00;;
26806;SDS011;14380;49.910;6.792;2023-04-29T09:30:13;8.90;;;6.18;;
26806;SDS011;14380;49.910;6.792;2023-04-29T09:32:40;9.77;;;7.22;;
26806;SDS011;14380;49.910;6.792;2023-04-29T09:35:22;9.77;;;6.43;;
26806;SDS011;14380;49.910;6.792;2023-04-29T09:37:49;8.55;;;6.10;;
26806;SDS011;14380;49.910;6.792;2023-04-29T09:40:27;9.80;;;6.47;;
26806;SDS011;14380;49.910;6.792;2023-04-29T09:42:55;9.90;;;6.75;;
26806;SDS011;14380;49.910;6.792;2023-04-29T09:45:32;9.23;;;6.38;;
26806;SDS011;14380;49.910;6.792;2023-04-29T09:48:02;9.05;;;6.18;;
26806;SDS011;14380;49.910;6.792;2023-04-29T09:50:31;10.65;;;6.45;;
26806;SDS011;14380;49.910;6.792;2023-04-29T09:52:58;9.13;;;6.22;;
26806;SDS011;14380;49.910;6.792;2023-04-29T09:55:25;10.43;;;6.30;;
26806;SDS011;14380;49.910;6.792;2023-04-29T09:57:52;8.65;;;6.15;;
26806;SDS011;14380;49.910;6.792;2023-04-29T10:00:18;8.40;;;5.90;;
26806;SDS011;14380;49.910;6.792;2023-04-29T10:02:46;8.98;;;6.20;;
26806;SDS011;14380;49.910;6.792;2023-04-29T10:05:14;7.57;;;5.70;;
26806;SDS011;14380;49.910;6.792;2023-04-29T10:07:42;7.32;;;5.28;;
26806;SDS011;14380;49.910;6.792;2023-04-29T10:10:11;8.82;;;5.22;;
26806;SDS011;14380;49.910;6.792;2023-04-29T10:12:39;8.13;;;6.00;;
26806;SDS011;14380;49.910;6.792;2023-04-29T10:15:07;9.20;;;5.80;;
26806;SDS011;14380;49.910;6.792;2023-04-29T10:17:44;8.05;;;6.45;;
26806;SDS011;14380;49.910;6.792;2023-04-29T10:20:14;10.63;;;6.13;;
26806;SDS011;14380;49.910;6.792;2023-04-29T10:22:49;10.15;;;7.30;;
26806;SDS011;14380;49.910;6.792;2023-04-29T10:25:16;9.80;;;6.32;;
26806;SDS011;14380;49.910;6.792;2023-04-29T10:27:44;7.53;;;6.15;;
26806;SDS011;14380;49.910;6.792;2023-04-29T10:30:13;10.63;;;6.82;;
26806;SDS011;14380;49.910;6.792;2023-04-29T10:32:41;8.68;;;6.45;;
26806;SDS011;14380;49.910;6.792;2023-04-29T10:35:10;10.23;;;6.75;;
26806;SDS011;14380;49.910;6.792;2023-04-29T10:37:38;6.63;;;4.97;;
26806;SDS011;14380;49.910;6.792;2023-04-29T10:40:09;7.07;;;4.15;;
26806;SDS011;14380;49.910;6.792;2023-04-29T10:42:42;6.38;;;3.58;;
26806;SDS011;14380;49.910;6.792;2023-04-29T10:45:17;4.03;;;3.22;;
26806;SDS011;14380;49.910;6.792;2023-04-29T10:50:40;3.78;;;2.92;;
26806;SDS011;14380;49.910;6.792;2023-04-29T10:53:26;6.13;;;3.45;;
26806;SDS011;14380;49.910;6.792;2023-04-29T10:55:55;4.03;;;3.17;;
26806;SDS011;14380;49.910;6.792;2023-04-29T10:58:34;2.75;;;2.50;;
26806;SDS011;14380;49.910;6.792;2023-04-29T11:01:06;3.83;;;2.85;;
26806;SDS011;14380;49.910;6.792;2023-04-29T11:03:49;3.35;;;2.63;;
26806;SDS011;14380;49.910;6.792;2023-04-29T11:08:58;4.55;;;2.50;;
26806;SDS011;14380;49.910;6.792;2023-04-29T11:11:31;2.17;;;1.75;;
26806;SDS011;14380;49.910;6.792;2023-04-29T11:14:06;2.95;;;2.28;;
26806;SDS011;14380;49.910;6.792;2023-04-29T11:16:34;2.67;;;2.38;;
26806;SDS011;14380;49.910;6.792;2023-04-29T11:19:05;2.58;;;2.22;;
26806;SDS011;14380;49.910;6.792;2023-04-29T11:21:33;3.45;;;2.15;;
26806;SDS011;14380;49.910;6.792;2023-04-29T11:24:00;3.80;;;2.60;;
26806;SDS011;14380;49.910;6.792;2023-04-29T11:26:28;3.22;;;2.45;;
26806;SDS011;14380;49.910;6.792;2023-04-29T11:28:55;8.63;;;3.80;;
26806;SDS011;14380;49.910;6.792;2023-04-29T11:31:24;12.35;;;3.95;;
26806;SDS011;14380;49.910;6.792;2023-04-29T11:33:53;4.70;;;2.42;;
26806;SDS011;14380;49.910;6.792;2023-04-29T11:36:19;2.80;;;2.50;;
26806;SDS011;14380;49.910;6.792;2023-04-29T11:38:46;3.05;;;2.33;;
26806;SDS011;14380;49.910;6.792;2023-04-29T11:41:13;5.45;;;2.83;;
26806;SDS011;14380;49.910;6.792;2023-04-29T11:43:41;2.97;;;2.55;;
26806;SDS011;14380;49.910;6.792;2023-04-29T11:46:10;4.32;;;2.85;;
26806;SDS011;14380;49.910;6.792;2023-04-29T11:48:44;4.55;;;3.80;;
26806;SDS011;14380;49.910;6.792;2023-04-29T11:51:11;4.45;;;3.28;;
26806;SDS011;14380;49.910;6.792;2023-04-29T11:53:38;4.88;;;3.80;;
26806;SDS011;14380;49.910;6.792;2023-04-29T11:56:05;3.55;;;3.22;;
26806;SDS011;14380;49.910;6.792;2023-04-29T11:58:34;4.18;;;3.63;;
26806;SDS011;14380;49.910;6.792;2023-04-29T12:01:02;4.35;;;3.17;;
26806;SDS011;14380;49.910;6.792;2023-04-29T12:03:30;4.43;;;3.40;;
26806;SDS011;14380;49.910;6.792;2023-04-29T12:05:57;4.35;;;3.95;;
26806;SDS011;14380;49.910;6.792;2023-04-29T12:08:25;5.25;;;4.32;;
26806;SDS011;14380;49.910;6.792;2023-04-29T12:10:53;4.88;;;3.83;;
26806;SDS011;14380;49.910;6.792;2023-04-29T12:13:21;5.10;;;3.63;;
26806;SDS011;14380;49.910;6.792;2023-04-29T12:15:49;4.70;;;4.07;;
26806;SDS011;14380;49.910;6.792;2023-04-29T12:18:18;5.43;;;4.10;;
26806;SDS011;14380;49.910;6.792;2023-04-29T12:20:47;5.13;;;3.75;;
26806;SDS011;14380;49.910;6.792;2023-04-29T12:23:16;4.95;;;3.70;;
26806;SDS011;14380;49.910;6.792;2023-04-29T12:25:46;4.30;;;3.50;;
26806;SDS011;14380;49.910;6.792;2023-04-29T12:28:15;5.60;;;3.55;;
26806;SDS011;14380;49.910;6.792;2023-04-29T12:30:42;5.82;;;4.00;;
26806;SDS011;14380;49.910;6.792;2023-04-29T12:33:09;4.70;;;3.40;;
26806;SDS011;14380;49.910;6.792;2023-04-29T12:35:37;4.03;;;3.50;;
26806;SDS011;14380;49.910;6.792;2023-04-29T12:38:04;3.97;;;3.40;;
26806;SDS011;14380;49.910;6.792;2023-04-29T12:40:31;4.07;;;3.35;;
26806;SDS011;14380;49.910;6.792;2023-04-29T12:43:05;3.42;;;3.13;;
26806;SDS011;14380;49.910;6.792;2023-04-29T12:45:32;4.63;;;3.28;;
26806;SDS011;14380;49.910;6.792;2023-04-29T12:47:59;4.53;;;3.30;;
26806;SDS011;14380;49.910;6.792;2023-04-29T12:50:30;3.85;;;3.45;;
26806;SDS011;14380;49.910;6.792;2023-04-29T12:52:59;5.97;;;3.53;;
26806;SDS011;14380;49.910;6.792;2023-04-29T12:55:27;3.92;;;3.08;;
26806;SDS011;14380;49.910;6.792;2023-04-29T12:57:54;3.17;;;2.83;;
26806;SDS011;14380;49.910;6.792;2023-04-29T13:00:20;4.43;;;2.97;;
26806;SDS011;14380;49.910;6.792;2023-04-29T13:02:47;4.25;;;3.20;;
26806;SDS011;14380;49.910;6.792;2023-04-29T13:05:14;3.03;;;2.75;;
26806;SDS011;14380;49.910;6.792;2023-04-29T13:07:40;3.75;;;2.92;;
26806;SDS011;14380;49.910;6.792;2023-04-29T13:10:09;2.97;;;2.60;;
26806;SDS011;14380;49.910;6.792;2023-04-29T13:12:37;4.93;;;2.55;;
26806;SDS011;14380;49.910;6.792;2023-04-29T13:15:05;3.38;;;3.08;;
26806;SDS011;14380;49.910;6.792;2023-04-29T13:17:33;4.97;;;2.97;;
26806;SDS011;14380;49.910;6.792;2023-04-29T13:20:00;5.68;;;3.45;;
26806;SDS011;14380;49.910;6.792;2023-04-29T13:22:27;4.57;;;3.60;;
26806;SDS011;14380;49.910;6.792;2023-04-29T13:24:53;2.78;;;2.47;;
26806;SDS011;14380;49.910;6.792;2023-04-29T13:27:21;3.03;;;2.72;;
26806;SDS011;14380;49.910;6.792;2023-04-29T13:29:48;3.25;;;2.95;;
26806;SDS011;14380;49.910;6.792;2023-04-29T13:32:14;3.58;;;3.08;;
26806;SDS011;14380;49.910;6.792;2023-04-29T13:34:41;3.33;;;2.88;;
26806;SDS011;14380;49.910;6.792;2023-04-29T13:37:09;3.83;;;3.40;;
26806;SDS011;14380;49.910;6.792;2023-04-29T13:39:35;4.07;;;3.60;;
26806;SDS011;14380;49.910;6.792;2023-04-29T13:42:02;4.57;;;3.22;;
26806;SDS011;14380;49.910;6.792;2023-04-29T13:44:31;4.05;;;3.47;;
26806;SDS011;14380;49.910;6.792;2023-04-29T13:46:58;3.53;;;3.22;;
26806;SDS011;14380;49.910;6.792;2023-04-29T13:49:24;4.10;;;3.70;;
26806;SDS011;14380;49.910;6.792;2023-04-29T13:51:51;4.07;;;3.67;;
26806;SDS011;14380;49.910;6.792;2023-04-29T13:54:17;4.30;;;3.78;;
26806;SDS011;14380;49.910;6.792;2023-04-29T13:56:45;4.55;;;3.58;;
26806;SDS011;14380;49.910;6.792;2023-04-29T13:59:11;5.05;;;4.40;;
26806;SDS011;14380;49.910;6.792;2023-04-29T14:01:39;4.53;;;4.10;;
26806;SDS011;14380;49.910;6.792;2023-04-29T14:04:06;4.75;;;4.32;;
26806;SDS011;14380;49.910;6.792;2023-04-29T14:06:33;4.40;;;4.00;;
26806;SDS011;14380;49.910;6.792;2023-04-29T14:09:00;5.40;;;3.80;;
26806;SDS011;14380;49.910;6.792;2023-04-29T14:11:27;4.78;;;4.20;;
26806;SDS011;14380;49.910;6.792;2023-04-29T14:13:54;5.95;;;4.20;;
26806;SDS011;14380;49.910;6.792;2023-04-29T14:16:21;6.60;;;4.70;;
26806;SDS011;14380;49.910;6.792;2023-04-29T14:18:49;4.65;;;4.25;;
26806;SDS011;14380;49.910;6.792;2023-04-29T14:21:15;4.40;;;4.00;;
26806;SDS011;14380;49.910;6.792;2023-04-29T14:23:42;5.10;;;3.60;;
26806;SDS011;14380;49.910;6.792;2023-04-29T14:26:08;4.10;;;3.70;;
26806;SDS011;14380;49.910;6.792;2023-04-29T14:28:35;4.20;;;3.80;;
26806;SDS011;14380;49.910;6.792;2023-04-29T14:31:02;8.00;;;4.47;;
26806;SDS011;14380;49.910;6.792;2023-04-29T14:33:28;4.85;;;4.13;;
26806;SDS011;14380;49.910;6.792;2023-04-29T14:35:56;6.40;;;3.97;;
26806;SDS011;14380;49.910;6.792;2023-04-29T14:38:25;5.05;;;4.18;;
26806;SDS011;14380;49.910;6.792;2023-04-29T14:40:51;4.90;;;4.40;;
26806;SDS011;14380;49.910;6.792;2023-04-29T14:43:18;5.40;;;4.63;;
26806;SDS011;14380;49.910;6.792;2023-04-29T14:45:44;6.18;;;4.70;;
26806;SDS011;14380;49.910;6.792;2023-04-29T14:48:11;5.28;;;4.60;;
26806;SDS011;14380;49.910;6.792;2023-04-29T14:50:37;5.50;;;4.93;;